Time;durP1;ratioP1;P1;durP2;ratioP2;P2;SDS_P1;SDS_P2;PMS_P1;PMS_P2;Temp;Humidity;BMP_temperature;BMP_pressure;BME280_temperature;BME280_humidity;BME280_pressure;Samples;Min_cycle;Max_cycle;Signal;HPM_P1;HPM_P2
2022/09/17 00:02:21;;;;;;;2.33;2.13;;;9.90;99.90;;;;;;5027603;28;20172;-57
2022/09/17 00:04:48;;;;;;;4.43;1.70;;;9.90;99.90;;;;;;5022962;28;20245;-57
2022/09/17 00:07:14;;;;;;;2.37;1.93;;;9.90;99.90;;;;;;5027810;28;20520;-57
2022/09/17 00:09:40;;;;;;;2.73;1.70;;;9.80;99.90;;;;;;5019155;28;20443;-57
2022/09/17 00:12:06;;;;;;;2.23;1.73;;;9.80;99.90;;;;;;5006745;28;20522;-58
2022/09/17 00:14:31;;;;;;;4.10;1.77;;;9.80;99.90;;;;;;5024282;28;20522;-57
2022/09/17 00:16:57;;;;;;;3.90;2.60;;;9.80;99.90;;;;;;5025770;28;20230;-55
2022/09/17 00:19:24;;;;;;;1.53;1.40;;;9.80;99.90;;;;;;5014286;28;20677;-57
2022/09/17 00:21:50;;;;;;;2.63;1.70;;;9.80;99.90;;;;;;5023302;28;20169;-57
2022/09/17 00:24:17;;;;;;;5.67;2.10;;;9.80;99.90;;;;;;5033219;28;20429;-56
2022/09/17 00:26:42;;;;;;;2.07;1.80;;;9.70;99.90;;;;;;5027979;28;20463;-58
2022/09/17 00:29:08;;;;;;;1.40;1.30;;;9.70;99.90;;;;;;5026761;28;20434;-58
2022/09/17 00:31:34;;;;;;;3.73;1.80;;;9.70;99.90;;;;;;5025398;28;20270;-57
2022/09/17 00:34:02;;;;;;;3.20;1.60;;;9.70;99.90;;;;;;5033505;28;20244;-57
2022/09/17 00:36:27;;;;;;;1.70;1.60;;;9.70;99.90;;;;;;5012316;28;20535;-58
2022/09/17 00:38:56;;;;;;;3.03;1.50;;;9.70;99.90;;;;;;5017483;28;20577;-59
2022/09/17 00:41:24;;;;;;;3.30;1.70;;;9.70;99.90;;;;;;5036115;28;20493;-59
2022/09/17 00:43:58;;;;;;;3.77;1.70;;;9.70;99.90;;;;;;5031076;28;20487;-58
2022/09/17 00:46:32;;;;;;;5.23;1.70;;;9.70;99.90;;;;;;5026548;28;20435;-59
2022/09/17 00:49:06;;;;;;;1.57;1.30;;;9.70;99.90;;;;;;5028834;28;21020;-58
2022/09/17 00:51:43;;;;;;;1.50;1.40;;;9.80;99.90;;;;;;5031637;28;20418;-60
2022/09/17 00:54:10;;;;;;;4.73;1.37;;;9.80;99.90;;;;;;5031399;28;20520;-59
2022/09/17 00:56:38;;;;;;;1.87;1.30;;;9.80;99.90;;;;;;5028896;28;20461;-57
2022/09/17 00:59:05;;;;;;;2.03;1.53;;;9.80;99.90;;;;;;5031414;28;20450;-56
2022/09/17 01:01:31;;;;;;;8.97;1.73;;;9.80;99.90;;;;;;5021753;28;20945;-58
2022/09/17 01:03:56;;;;;;;1.70;1.57;;;9.80;99.90;;;;;;5022383;28;20495;-56
2022/09/17 01:06:37;;;;;;;1.67;1.50;;;9.80;99.90;;;;;;5044711;28;20957;-56
2022/09/17 01:09:28;;;;;;;1.50;1.40;;;9.80;99.90;;;;;;5021777;28;20172;-57
2022/09/17 01:12:00;;;;;;;2.43;1.90;;;9.80;99.90;;;;;;5026808;28;20503;-57
2022/09/17 01:14:43;;;;;;;3.13;1.50;;;9.80;99.80;;;;;;5027814;28;20513;-57
2022/09/17 01:17:34;;;;;;;2.63;1.50;;;9.80;99.90;;;;;;5030355;28;20434;-58
2022/09/17 01:20:27;;;;;;;2.70;1.57;;;9.80;99.90;;;;;;5020793;28;20462;-57
2022/09/17 01:23:22;;;;;;;3.00;1.73;;;9.80;99.90;;;;;;5023279;28;20753;-57
2022/09/17 01:26:12;;;;;;;3.67;1.80;;;9.80;99.90;;;;;;5026611;28;20422;-59
2022/09/17 01:28:41;;;;;;;1.70;1.60;;;9.80;99.90;;;;;;5019313;28;20454;-57
2022/09/17 01:31:19;;;;;;;3.57;1.63;;;9.80;99.90;;;;;;5024672;28;20536;-58
2022/09/17 01:34:23;;;;;;;2.00;1.30;;;9.80;99.90;;;;;;5022740;28;20432;-58
2022/09/17 01:37:02;;;;;;;1.90;1.60;;;9.70;99.90;;;;;;4968946;28;20436;-58
2022/09/17 01:39:53;;;;;;;4.40;1.90;;;9.70;99.90;;;;;;4954075;28;20465;-59
2022/09/17 01:42:19;;;;;;;3.00;1.60;;;9.60;99.90;;;;;;4999006;28;20533;-59
2022/09/17 01:44:48;;;;;;;4.40;1.90;;;9.60;99.90;;;;;;5028748;28;20556;-59
2022/09/17 01:47:21;;;;;;;6.90;1.63;;;9.60;99.90;;;;;;5025008;28;20192;-58
2022/09/17 01:49:51;;;;;;;1.50;1.40;;;9.60;99.90;;;;;;5020098;28;20465;-57
2022/09/17 01:52:18;;;;;;;1.77;1.67;;;9.60;99.90;;;;;;5043172;28;20562;-59
2022/09/17 01:54:48;;;;;;;3.90;1.70;;;9.60;99.90;;;;;;5029992;28;20540;-59
2022/09/17 01:57:28;;;;;;;1.77;1.67;;;9.50;99.90;;;;;;5024841;28;21216;-58
2022/09/17 02:00:02;;;;;;;1.50;1.40;;;9.50;99.90;;;;;;5022914;28;20503;-58
2022/09/17 02:03:13;;;;;;;1.77;1.53;;;9.50;99.90;;;;;;5019526;28;20427;-59
2022/09/17 02:05:41;;;;;;;1.50;1.40;;;9.50;99.90;;;;;;5025062;28;20441;-59
2022/09/17 02:08:15;;;;;;;4.93;2.03;;;9.50;99.90;;;;;;5024995;28;20438;-58
2022/09/17 02:10:48;;;;;;;2.30;1.60;;;9.50;99.90;;;;;;5030104;28;20443;-58
2022/09/17 02:13:29;;;;;;;1.90;1.80;;;9.40;99.90;;;;;;5028817;28;20881;-58
2022/09/17 02:16:00;;;;;;;1.63;1.50;;;9.40;99.90;;;;;;5029725;28;20410;-58
2022/09/17 02:18:35;;;;;;;1.90;1.60;;;9.30;99.90;;;;;;5022571;28;20461;-59
2022/09/17 02:21:15;;;;;;;5.23;1.77;;;9.20;99.90;;;;;;5030576;28;20409;-60
2022/09/17 02:24:04;;;;;;;3.83;1.90;;;9.30;99.90;;;;;;5033111;28;20807;-58
2022/09/17 02:26:33;;;;;;;1.60;1.50;;;9.30;99.90;;;;;;5018994;28;20461;-58
2022/09/17 02:29:10;;;;;;;2.17;1.80;;;9.20;99.90;;;;;;5023647;28;20431;-59
2022/09/17 02:31:36;;;;;;;1.73;1.63;;;9.30;99.90;;;;;;5011603;28;20943;-59
2022/09/17 02:34:04;;;;;;;1.70;1.60;;;9.30;99.90;;;;;;5034250;28;20434;-59
2022/09/17 02:36:31;;;;;;;2.60;1.57;;;9.30;99.90;;;;;;5028670;28;20710;-59
2022/09/17 02:39:01;;;;;;;2.50;1.67;;;9.30;99.90;;;;;;5028217;28;20553;-59
2022/09/17 02:41:44;;;;;;;3.43;1.97;;;9.20;99.90;;;;;;5028791;28;20734;-58
2022/09/17 02:44:13;;;;;;;3.43;1.80;;;9.20;99.90;;;;;;5025138;28;20430;-59
2022/09/17 02:47:12;;;;;;;2.90;1.50;;;9.20;99.90;;;;;;5021988;28;20420;-59
2022/09/17 02:49:48;;;;;;;3.00;1.83;;;9.20;99.90;;;;;;5025624;28;20639;-58
2022/09/17 02:52:33;;;;;;;1.80;1.70;;;9.20;99.90;;;;;;5033977;28;20936;-60
2022/09/17 02:55:25;;;;;;;1.83;1.70;;;9.20;99.90;;;;;;5014859;28;20431;-58
2022/09/17 02:58:16;;;;;;;3.77;1.70;;;9.20;99.90;;;;;;5030756;22;20491;-60
2022/09/17 03:00:43;;;;;;;1.57;1.47;;;9.20;99.90;;;;;;5015644;28;20443;-60
2022/09/17 03:03:32;;;;;;;2.10;1.93;;;9.20;99.90;;;;;;5022090;28;20426;-60
2022/09/17 03:05:59;;;;;;;2.90;1.90;;;9.20;99.90;;;;;;5013990;28;20879;-60
2022/09/17 03:08:44;;;;;;;2.07;1.87;;;9.20;99.90;;;;;;5016161;28;20541;-60
2022/09/17 03:11:11;;;;;;;1.70;1.60;;;9.20;99.90;;;;;;5003149;28;20459;-59
2022/09/17 03:13:37;;;;;;;1.70;1.60;;;9.20;99.90;;;;;;5002627;28;20832;-59
2022/09/17 03:16:04;;;;;;;3.80;1.90;;;9.20;99.90;;;;;;5005047;28;20436;-60
2022/09/17 03:18:30;;;;;;;1.60;1.50;;;9.20;99.90;;;;;;5003524;28;20189;-60
2022/09/17 03:20:56;;;;;;;3.13;1.97;;;9.20;99.90;;;;;;5009428;28;20435;-60
2022/09/17 03:23:21;;;;;;;1.53;1.43;;;9.20;99.90;;;;;;5002079;28;20947;-59
2022/09/17 03:25:50;;;;;;;2.97;2.13;;;9.10;99.90;;;;;;5006824;28;20169;-60
2022/09/17 03:28:16;;;;;;;5.33;1.67;;;9.20;99.90;;;;;;5007798;28;20203;-60
2022/09/17 03:30:46;;;;;;;1.90;1.70;;;9.20;99.90;;;;;;5009177;28;20440;-60
2022/09/17 03:33:12;;;;;;;2.63;1.90;;;9.20;99.90;;;;;;5004488;28;20172;-60
2022/09/17 03:35:41;;;;;;;2.30;1.70;;;9.20;99.90;;;;;;5008270;28;20434;-60
2022/09/17 03:38:06;;;;;;;3.20;2.10;;;9.20;99.90;;;;;;5002527;28;20458;-60
2022/09/17 03:40:32;;;;;;;2.67;2.00;;;9.20;99.90;;;;;;5009872;28;20829;-59
2022/09/17 03:42:57;;;;;;;4.80;1.53;;;9.30;99.90;;;;;;5002145;28;20173;-60
2022/09/17 03:45:23;;;;;;;3.87;1.83;;;9.20;99.90;;;;;;5006018;28;20172;-60
2022/09/17 03:47:48;;;;;;;2.40;1.57;;;9.20;99.90;;;;;;5000252;28;20327;-59
2022/09/17 03:50:14;;;;;;;2.90;1.70;;;9.20;99.90;;;;;;5008270;28;20173;-60
2022/09/17 03:52:42;;;;;;;2.40;1.63;;;9.30;99.90;;;;;;5007329;28;20185;-59
2022/09/17 03:55:07;;;;;;;1.73;1.50;;;9.20;99.90;;;;;;5011519;28;20176;-60
2022/09/17 03:57:33;;;;;;;2.17;1.70;;;9.20;99.90;;;;;;4999003;28;20909;-59
2022/09/17 03:59:59;;;;;;;2.00;1.77;;;9.20;99.90;;;;;;5004144;28;20197;-60
2022/09/17 04:02:24;;;;;;;1.50;1.40;;;9.20;99.90;;;;;;5003639;28;20790;-60
2022/09/17 04:04:51;;;;;;;2.90;1.40;;;9.20;99.90;;;;;;5007092;28;20252;-60
2022/09/17 04:07:17;;;;;;;2.70;1.57;;;9.20;99.90;;;;;;5006327;28;20203;-60
2022/09/17 04:09:43;;;;;;;3.27;1.57;;;9.10;99.90;;;;;;5007086;28;20463;-60
2022/09/17 04:12:08;;;;;;;1.50;1.40;;;9.10;99.90;;;;;;5004726;28;20188;-60
2022/09/17 04:14:34;;;;;;;1.90;1.53;;;9.10;99.90;;;;;;5009422;28;20172;-60
2022/09/17 04:16:59;;;;;;;1.97;1.83;;;9.10;99.90;;;;;;5018641;28;20659;-59
2022/09/17 04:19:25;;;;;;;1.80;1.63;;;9.00;99.90;;;;;;5012334;28;20208;-60
2022/09/17 04:21:51;;;;;;;1.87;1.57;;;9.00;99.90;;;;;;5006907;28;20246;-60
2022/09/17 04:24:17;;;;;;;3.00;1.53;;;8.90;99.90;;;;;;5007053;28;20173;-60
2022/09/17 04:26:43;;;;;;;1.40;1.30;;;8.90;99.90;;;;;;5006659;28;20946;-60
2022/09/17 04:29:09;;;;;;;1.67;1.50;;;8.90;99.90;;;;;;5010065;28;20198;-60
2022/09/17 04:31:35;;;;;;;2.77;1.40;;;8.80;99.90;;;;;;5018818;28;20266;-59
2022/09/17 04:34:00;;;;;;;4.93;1.47;;;8.80;99.90;;;;;;5007543;28;20237;-59
2022/09/17 04:36:26;;;;;;;2.70;1.50;;;8.80;99.90;;;;;;5004111;28;20435;-59
2022/09/17 04:38:52;;;;;;;2.37;1.30;;;8.80;99.90;;;;;;5009694;28;20228;-59
2022/09/17 04:41:18;;;;;;;1.63;1.33;;;8.70;99.90;;;;;;5008549;28;20184;-60
2022/09/17 04:43:44;;;;;;;1.83;1.40;;;8.70;99.90;;;;;;5001891;28;20518;-59
2022/09/17 04:46:09;;;;;;;2.30;1.20;;;8.70;99.90;;;;;;5004042;28;20173;-60
2022/09/17 04:48:35;;;;;;;1.73;1.30;;;8.70;99.90;;;;;;5007993;28;20247;-60
2022/09/17 04:51:01;;;;;;;1.70;1.40;;;8.70;99.90;;;;;;5009821;28;20165;-59
2022/09/17 04:53:27;;;;;;;1.70;1.40;;;8.70;99.90;;;;;;5002511;28;20485;-60
2022/09/17 04:55:52;;;;;;;2.93;1.50;;;8.70;99.90;;;;;;4997259;28;20679;-60
2022/09/17 04:58:18;;;;;;;4.23;1.70;;;8.70;99.90;;;;;;5004248;28;20214;-59
2022/09/17 05:00:44;;;;;;;3.70;1.30;;;8.70;99.90;;;;;;5003869;28;20185;-60
2022/09/17 05:03:09;;;;;;;2.40;1.43;;;8.60;99.90;;;;;;5007004;28;20248;-59
2022/09/17 05:05:35;;;;;;;1.93;1.50;;;8.60;99.90;;;;;;4997907;28;20651;-59
2022/09/17 05:08:01;;;;;;;4.30;1.60;;;8.60;99.90;;;;;;5006476;28;20189;-59
2022/09/17 05:10:27;;;;;;;3.73;1.40;;;8.60;99.90;;;;;;5008422;28;20695;-60
2022/09/17 05:12:54;;;;;;;2.60;1.50;;;8.60;99.90;;;;;;5000530;28;20242;-59
2022/09/17 05:15:22;;;;;;;2.17;1.60;;;8.60;99.90;;;;;;5008628;28;20640;-59
2022/09/17 05:17:47;;;;;;;1.73;1.50;;;8.60;99.90;;;;;;5001290;28;20578;-60
2022/09/17 05:20:14;;;;;;;1.50;1.40;;;8.50;99.90;;;;;;5003773;28;20549;-60
2022/09/17 05:22:52;;;;;;;3.23;1.37;;;8.50;99.90;;;;;;5008122;28;20176;-60
2022/09/17 05:25:23;;;;;;;2.67;1.50;;;8.50;99.90;;;;;;5013579;28;20901;-59
2022/09/17 05:27:49;;;;;;;4.63;1.67;;;8.50;99.90;;;;;;5011838;28;20478;-59
2022/09/17 05:30:15;;;;;;;2.20;1.57;;;8.50;99.90;;;;;;5007007;28;20419;-59
2022/09/17 05:32:41;;;;;;;2.80;1.70;;;8.60;99.90;;;;;;5009199;28;20493;-59
2022/09/17 05:35:07;;;;;;;1.63;1.40;;;8.60;99.90;;;;;;5008065;28;20187;-59
2022/09/17 05:37:33;;;;;;;3.77;1.60;;;8.60;99.90;;;;;;5012045;28;20179;-60
2022/09/17 05:39:59;;;;;;;2.03;1.60;;;8.70;99.90;;;;;;5012835;28;20821;-60
2022/09/17 05:42:24;;;;;;;1.97;1.53;;;8.70;99.90;;;;;;5010646;28;20180;-59
2022/09/17 05:44:50;;;;;;;1.50;1.40;;;8.70;99.90;;;;;;5002544;28;20231;-59
2022/09/17 05:47:15;;;;;;;4.10;1.73;;;8.80;99.90;;;;;;5011133;28;20268;-59
2022/09/17 05:49:41;;;;;;;3.50;1.97;;;8.80;99.90;;;;;;5009286;28;20661;-59
2022/09/17 05:52:07;;;;;;;2.50;1.87;;;8.90;99.90;;;;;;5010280;28;20234;-60
2022/09/17 05:54:32;;;;;;;3.37;1.70;;;8.90;99.90;;;;;;5009595;28;20180;-59
2022/09/17 05:56:58;;;;;;;6.60;1.70;;;8.90;99.90;;;;;;5009835;28;20203;-60
2022/09/17 05:59:23;;;;;;;4.67;1.90;;;8.90;99.90;;;;;;5008218;28;20701;-60
2022/09/17 06:01:49;;;;;;;2.17;1.93;;;8.90;99.90;;;;;;5006330;28;20173;-59
2022/09/17 06:04:16;;;;;;;6.60;2.20;;;8.90;99.90;;;;;;5005254;28;20173;-60
2022/09/17 06:06:42;;;;;;;3.37;1.77;;;8.90;99.90;;;;;;5012266;28;20415;-60
2022/09/17 06:09:09;;;;;;;3.00;1.83;;;9.00;99.90;;;;;;5006541;28;20463;-60
2022/09/17 06:11:36;;;;;;;3.37;1.90;;;9.00;99.90;;;;;;5009341;28;20184;-59
2022/09/17 06:14:01;;;;;;;2.27;1.83;;;9.00;99.90;;;;;;5009852;28;20467;-60
2022/09/17 06:16:28;;;;;;;3.27;1.97;;;9.10;99.90;;;;;;5012250;28;20930;-59
2022/09/17 06:18:53;;;;;;;5.90;1.87;;;9.10;99.90;;;;;;5001671;28;20192;-59
2022/09/17 06:21:22;;;;;;;5.07;1.87;;;9.10;99.90;;;;;;5004019;28;20511;-60
2022/09/17 06:23:49;;;;;;;3.53;1.77;;;9.20;99.90;;;;;;5003225;28;20169;-60
2022/09/17 06:26:15;;;;;;;7.47;2.77;;;9.20;99.90;;;;;;4994696;28;20446;-58
2022/09/17 06:28:41;;;;;;;4.00;1.87;;;9.20;99.90;;;;;;5005085;28;20974;-57
2022/09/17 06:31:08;;;;;;;6.57;1.90;;;9.30;99.90;;;;;;4998311;28;20165;-58
2022/09/17 06:33:35;;;;;;;3.57;1.80;;;9.30;99.90;;;;;;5002557;28;20427;-58
2022/09/17 06:36:06;;;;;;;3.10;1.93;;;9.30;99.90;;;;;;4991743;28;20435;-57
2022/09/17 06:38:34;;;;;;;3.20;2.17;;;9.30;99.90;;;;;;5001032;28;20490;-57
2022/09/17 06:41:00;;;;;;;4.70;1.87;;;9.30;99.90;;;;;;5001888;28;20431;-59
2022/09/17 06:43:26;;;;;;;6.33;2.27;;;9.30;99.00;;;;;;4993878;28;20479;-59
2022/09/17 06:45:56;;;;;;;5.90;1.80;;;9.30;99.90;;;;;;4993131;28;20424;-59
2022/09/17 06:48:22;;;;;;;3.73;1.93;;;9.30;99.90;;;;;;5014247;28;20201;-57
2022/09/17 06:50:49;;;;;;;1.90;1.70;;;9.30;99.90;;;;;;4995122;28;20958;-58
2022/09/17 06:53:15;;;;;;;2.03;1.93;;;9.30;99.90;;;;;;5000048;28;20485;-59
2022/09/17 06:55:40;;;;;;;7.03;2.13;;;9.30;98.90;;;;;;4997863;28;20443;-59
2022/09/17 06:58:06;;;;;;;4.13;2.17;;;9.30;98.10;;;;;;5003471;28;20456;-57
2022/09/17 07:00:32;;;;;;;2.67;2.10;;;9.20;98.50;;;;;;5004673;28;20203;-58
2022/09/17 07:02:59;;;;;;;3.87;2.10;;;9.20;99.80;;;;;;5002322;28;20208;-61
2022/09/17 07:05:26;;;;;;;3.13;2.00;;;9.20;99.90;;;;;;4998024;28;20176;-60
2022/09/17 07:07:53;;;;;;;3.87;1.90;;;9.10;99.10;;;;;;5002670;28;20908;-59
2022/09/17 07:10:19;;;;;;;7.13;1.90;;;9.10;99.90;;;;;;5003287;28;20434;-60
2022/09/17 07:12:45;;;;;;;7.27;1.90;;;9.10;99.90;;;;;;5002486;28;20973;-60
2022/09/17 07:15:11;;;;;;;3.97;2.47;;;9.20;99.90;;;;;;5003823;28;20455;-60
2022/09/17 07:17:40;;;;;;;9.50;1.80;;;9.20;99.10;;;;;;4996092;28;20200;-59
2022/09/17 07:20:06;;;;;;;3.23;2.07;;;9.20;99.90;;;;;;5000627;28;20547;-60
2022/09/17 07:22:32;;;;;;;1.87;1.70;;;9.20;99.90;;;;;;5000444;28;20435;-59
2022/09/17 07:24:58;;;;;;;6.43;2.23;;;9.30;99.90;;;;;;5004172;28;20778;-59
2022/09/17 07:27:26;;;;;;;2.90;1.80;;;9.30;98.30;;;;;;4997463;28;20423;-59
2022/09/17 07:29:52;;;;;;;4.30;2.13;;;9.30;99.70;;;;;;5000561;28;20176;-59
2022/09/17 07:32:17;;;;;;;9.90;2.00;;;9.40;98.30;;;;;;4998620;28;20427;-57
2022/09/17 07:34:43;;;;;;;2.93;1.70;;;9.40;96.70;;;;;;5003171;28;20181;-54
2022/09/17 07:37:08;;;;;;;4.10;2.00;;;9.50;97.00;;;;;;5002954;28;20176;-60
2022/09/17 07:39:34;;;;;;;6.27;1.80;;;9.50;95.50;;;;;;4996655;28;20216;-60
2022/09/17 07:42:00;;;;;;;3.97;1.80;;;9.60;95.30;;;;;;5000841;28;20228;-60
2022/09/17 07:44:26;;;;;;;3.60;1.73;;;9.60;94.90;;;;;;4998307;28;20180;-60
2022/09/17 07:46:52;;;;;;;10.23;2.13;;;9.60;95.00;;;;;;4997794;28;20181;-59
2022/09/17 07:49:18;;;;;;;10.07;1.90;;;9.70;94.90;;;;;;4994924;28;21157;-60
2022/09/17 07:51:44;;;;;;;2.07;1.60;;;9.70;91.20;;;;;;4994816;28;20176;-60
2022/09/17 07:54:09;;;;;;;6.97;2.07;;;9.80;92.30;;;;;;4996037;28;20518;-59
2022/09/17 07:56:35;;;;;;;2.70;2.03;;;10.00;92.50;;;;;;4997689;28;20176;-61
2022/09/17 07:59:02;;;;;;;5.47;1.97;;;10.10;91.80;;;;;;4998651;28;20208;-60
2022/09/17 08:01:30;;;;;;;7.33;1.60;;;10.20;91.10;;;;;;4997262;28;20173;-59
2022/09/17 08:03:56;;;;;;;3.23;1.83;;;10.20;86.10;;;;;;4991833;28;20431;-58
2022/09/17 08:06:25;;;;;;;3.80;1.73;;;10.20;84.30;;;;;;4995588;28;20430;-58
2022/09/17 08:08:50;;;;;;;3.40;1.67;;;10.10;81.30;;;;;;4999890;28;20208;-58
2022/09/17 08:11:21;;;;;;;5.70;2.40;;;10.10;81.30;;;;;;5000439;28;20439;-57
2022/09/17 08:13:52;;;;;;;3.10;1.60;;;10.20;81.90;;;;;;5001838;28;20180;-60
2022/09/17 08:16:20;;;;;;;4.97;2.50;;;10.30;82.30;;;;;;4998103;28;20511;-61
2022/09/17 08:18:46;;;;;;;5.50;1.73;;;10.30;83.10;;;;;;4993778;28;20454;-60
2022/09/17 08:21:15;;;;;;;2.47;1.43;;;10.50;78.70;;;;;;4999132;28;20468;-61
2022/09/17 08:23:42;;;;;;;4.60;1.90;;;10.50;76.50;;;;;;4998019;28;20423;-61
2022/09/17 08:26:13;;;;;;;7.93;1.90;;;10.50;78.00;;;;;;5002557;28;20426;-60
2022/09/17 08:28:39;;;;;;;3.27;1.83;;;10.60;79.50;;;;;;5004311;28;20521;-60
2022/09/17 08:31:07;;;;;;;6.20;1.97;;;10.60;76.70;;;;;;5000431;28;20431;-61
2022/09/17 08:33:34;;;;;;;3.77;2.13;;;10.70;75.10;;;;;;5015381;28;20276;-61
2022/09/17 08:36:01;;;;;;;3.33;1.60;;;10.70;72.50;;;;;;5003167;28;20419;-61
2022/09/17 08:38:28;;;;;;;3.37;1.33;;;10.70;72.30;;;;;;5002082;28;20482;-61
2022/09/17 08:41:11;;;;;;;2.93;1.60;;;10.70;73.60;;;;;;5004055;28;20459;-61
2022/09/17 08:43:58;;;;;;;5.13;2.00;;;10.80;76.80;;;;;;5005401;28;20444;-61
2022/09/17 08:46:25;;;;;;;6.97;2.00;;;10.80;77.10;;;;;;5006352;28;20996;-62
2022/09/17 08:49:20;;;;;;;1.63;1.53;;;11.00;76.80;;;;;;5008771;28;20427;-61
2022/09/17 08:52:01;;;;;;;6.67;1.43;;;11.10;71.30;;;;;;5002108;28;20841;-61
2022/09/17 08:54:29;;;;;;;4.87;2.00;;;11.20;70.30;;;;;;5004437;28;20426;-61
2022/09/17 08:57:08;;;;;;;3.83;1.57;;;11.30;71.20;;;;;;5007378;28;20446;-61
2022/09/17 08:59:44;;;;;;;4.30;1.70;;;11.40;68.50;;;;;;5009019;28;20471;-61
2022/09/17 09:02:20;;;;;;;2.63;1.60;;;11.50;67.90;;;;;;5007532;28;20427;-61
2022/09/17 09:04:51;;;;;;;4.03;1.90;;;11.60;67.80;;;;;;4997967;28;20435;-61
2022/09/17 09:07:26;;;;;;;6.90;2.00;;;11.90;69.10;;;;;;5013600;28;20533;-61
2022/09/17 09:10:15;;;;;;;6.17;1.50;;;11.90;66.80;;;;;;5046814;22;20486;-59
2022/09/17 09:12:42;;;;;;;3.87;1.63;;;11.70;65.40;;;;;;5010266;28;20488;-58
2022/09/17 09:15:35;;;;;;;5.77;1.40;;;11.60;65.60;;;;;;5028355;28;20897;-58
2022/09/17 09:18:11;;;;;;;4.03;1.50;;;11.30;65.60;;;;;;4993312;28;20422;-59
2022/09/17 09:20:55;;;;;;;8.50;1.33;;;11.20;69.10;;;;;;5011363;28;20561;-58
2022/09/17 09:23:44;;;;;;;1.93;1.30;;;11.30;67.70;;;;;;5012824;28;20426;-58
2022/09/17 09:26:17;;;;;;;2.27;1.40;;;11.40;67.30;;;;;;5016747;28;20442;-57
2022/09/17 09:29:17;;;;;;;6.53;1.60;;;11.50;68.50;;;;;;5023886;28;20940;-58
2022/09/17 09:32:01;;;;;;;5.50;1.60;;;11.50;68.70;;;;;;5026600;28;20438;-59
2022/09/17 09:34:28;;;;;;;2.63;1.50;;;11.50;69.00;;;;;;5032695;28;20845;-58
2022/09/17 09:37:20;;;;;;;1.20;1.10;;;11.50;69.80;;;;;;5026104;28;20430;-58
2022/09/17 09:39:49;;;;;;;1.10;1.10;;;11.60;66.80;;;;;;5017671;28;20798;-58
2022/09/17 09:42:34;;;;;;;2.40;1.13;;;11.50;67.70;;;;;;5028165;28;20435;-58
2022/09/17 09:45:05;;;;;;;2.30;1.30;;;11.50;67.50;;;;;;5029801;28;20422;-58
2022/09/17 09:47:34;;;;;;;2.43;1.70;;;11.30;70.50;;;;;;5031604;28;20450;-58
2022/09/17 09:50:11;;;;;;;1.73;1.50;;;11.20;74.80;;;;;;5029383;28;20517;-59
2022/09/17 09:52:58;;;;;;;2.50;1.60;;;11.20;79.60;;;;;;5028059;28;20438;-56
2022/09/17 09:55:49;;;;;;;2.93;1.80;;;11.20;81.90;;;;;;5030066;28;20933;-56
2022/09/17 09:58:37;;;;;;;1.87;1.20;;;11.20;83.90;;;;;;5019631;28;20502;-57
2022/09/17 10:01:15;;;;;;;1.93;1.40;;;11.20;83.50;;;;;;5025414;28;20456;-57
2022/09/17 10:03:44;;;;;;;4.00;1.60;;;11.10;80.70;;;;;;5045975;28;20418;-57
2022/09/17 10:06:13;;;;;;;1.60;1.40;;;10.90;84.50;;;;;;5013948;28;20820;-58
2022/09/17 10:08:41;;;;;;;1.50;1.17;;;10.80;90.10;;;;;;5017513;28;21056;-58
2022/09/17 10:11:12;;;;;;;3.00;1.77;;;10.60;90.70;;;;;;5029200;28;20448;-57
2022/09/17 10:13:39;;;;;;;1.40;1.30;;;10.40;92.50;;;;;;5027929;28;20443;-57
2022/09/17 10:16:26;;;;;;;3.20;2.20;;;10.40;94.30;;;;;;5031994;28;20515;-57
2022/09/17 10:19:03;;;;;;;2.83;1.67;;;10.30;95.80;;;;;;5029131;28;20430;-57
2022/09/17 10:21:31;;;;;;;1.90;1.20;;;10.30;98.40;;;;;;5028498;28;20892;-57
2022/09/17 10:23:57;;;;;;;0.90;0.90;;;10.40;98.90;;;;;;5017237;28;20437;-58
2022/09/17 10:26:27;;;;;;;1.33;0.97;;;10.50;97.60;;;;;;5030836;28;20434;-57
2022/09/17 10:28:57;;;;;;;3.47;1.40;;;10.60;95.30;;;;;;5028069;28;20433;-58
2022/09/17 10:31:23;;;;;;;1.20;1.10;;;10.70;96.70;;;;;;5034065;28;20433;-58
2022/09/17 10:34:14;;;;;;;1.90;1.20;;;10.70;94.30;;;;;;5029725;28;20948;-57
2022/09/17 10:36:45;;;;;;;1.10;1.00;;;10.70;92.30;;;;;;5026417;28;20442;-58
2022/09/17 10:39:32;;;;;;;1.10;1.00;;;10.80;94.30;;;;;;5029339;28;20820;-57
2022/09/17 10:41:59;;;;;;;2.43;1.10;;;11.00;94.30;;;;;;5026924;28;20524;-57
2022/09/17 10:44:27;;;;;;;5.30;1.10;;;11.10;90.80;;;;;;5024465;28;20427;-57
2022/09/17 10:46:54;;;;;;;1.10;1.00;;;11.20;92.40;;;;;;5027667;28;20423;-57
2022/09/17 10:49:32;;;;;;;1.03;0.93;;;11.40;91.30;;;;;;5030303;28;20426;-57
2022/09/17 10:52:13;;;;;;;1.20;1.10;;;11.60;90.00;;;;;;5030217;28;20916;-57
2022/09/17 10:55:04;;;;;;;1.80;0.90;;;11.90;76.50;;;;;;5026328;28;20434;-60
2022/09/17 10:57:29;;;;;;;2.50;1.10;;;12.00;78.10;;;;;;5012295;28;20435;-57
2022/09/17 11:00:16;;;;;;;3.43;1.33;;;12.10;80.60;;;;;;5028464;28;21061;-57
2022/09/17 11:02:58;;;;;;;3.37;1.40;;;12.10;73.00;;;;;;5031430;28;20179;-57
2022/09/17 11:05:50;;;;;;;10.00;1.30;;;12.00;69.60;;;;;;5027507;28;20418;-57
2022/09/17 11:08:27;;;;;;;3.60;1.23;;;11.80;68.90;;;;;;5018371;28;20427;-57
2022/09/17 11:11:08;;;;;;;1.23;1.13;;;11.70;70.10;;;;;;5028046;28;20568;-59
2022/09/17 11:13:33;;;;;;;2.60;1.10;;;11.60;69.30;;;;;;5027362;28;21013;-57
2022/09/17 11:16:06;;;;;;;1.10;1.03;;;11.60;71.70;;;;;;5044549;28;20407;-57
2022/09/17 11:18:43;;;;;;;1.23;0.87;;;11.80;71.20;;;;;;5039399;28;20669;-57
2022/09/17 11:21:27;;;;;;;3.50;1.20;;;12.20;73.20;;;;;;5028649;28;20434;-57
2022/09/17 11:24:08;;;;;;;1.27;1.17;;;12.40;68.40;;;;;;5027236;28;20410;-56
2022/09/17 11:26:54;;;;;;;2.13;1.13;;;12.50;65.00;;;;;;5018163;28;20410;-57
2022/09/17 11:29:38;;;;;;;2.67;1.30;;;12.30;65.20;;;;;;5029783;28;20479;-57
2022/09/17 11:32:13;;;;;;;4.00;1.40;;;12.20;65.40;;;;;;5043751;28;20446;-57
2022/09/17 11:34:49;;;;;;;2.83;1.30;;;12.10;64.20;;;;;;5018394;28;20433;-58
2022/09/17 11:37:24;;;;;;;5.33;1.37;;;11.90;63.20;;;;;;5009535;28;20414;-56
2022/09/17 11:39:57;;;;;;;1.80;1.50;;;11.80;65.60;;;;;;5027015;28;20469;-57
2022/09/17 11:42:44;;;;;;;2.70;1.53;;;11.80;67.30;;;;;;5018429;28;20486;-57
2022/09/17 11:45:26;;;;;;;4.97;1.63;;;12.20;65.50;;;;;;5030394;28;20514;-56
2022/09/17 11:47:55;;;;;;;12.93;1.77;;;12.50;63.70;;;;;;5022370;28;20490;-56
2022/09/17 11:50:27;;;;;;;3.63;1.43;;;12.70;66.10;;;;;;5027653;28;20449;-57
2022/09/17 11:53:04;;;;;;;3.83;1.10;;;12.90;67.70;;;;;;5027159;28;20437;-56
2022/09/17 11:55:39;;;;;;;4.43;1.70;;;13.10;67.30;;;;;;5013184;28;20522;-56
2022/09/17 11:58:31;;;;;;;4.50;2.03;;;13.10;62.70;;;;;;5010828;28;20422;-57
2022/09/17 12:01:05;;;;;;;2.30;1.20;;;12.90;63.90;;;;;;5024783;28;20466;-56
2022/09/17 12:03:41;;;;;;;3.17;1.40;;;12.80;62.00;;;;;;5025640;28;20415;-56
2022/09/17 12:06:15;;;;;;;5.47;1.53;;;12.60;63.70;;;;;;5008966;28;20403;-56
2022/09/17 12:09:01;;;;;;;5.80;1.70;;;12.50;65.20;;;;;;5009448;28;20542;-56
2022/09/17 12:11:39;;;;;;;6.57;1.97;;;12.30;65.00;;;;;;5019778;28;20805;-57
2022/09/17 12:14:43;;;;;;;1.43;1.30;;;12.10;67.00;;;;;;5026230;28;20816;-56
2022/09/17 12:17:21;;;;;;;3.53;1.60;;;11.90;65.40;;;;;;5022685;28;20390;-57
2022/09/17 12:19:51;;;;;;;1.43;1.27;;;11.80;65.40;;;;;;5017220;28;20838;-58
2022/09/17 12:22:19;;;;;;;1.43;1.20;;;11.70;65.50;;;;;;5018081;28;20427;-57
2022/09/17 12:24:48;;;;;;;1.87;1.13;;;11.60;67.60;;;;;;5026648;28;20477;-58
2022/09/17 12:27:38;;;;;;;2.23;1.40;;;11.70;71.90;;;;;;5023435;28;20419;-58
2022/09/17 12:30:12;;;;;;;3.23;1.60;;;11.90;75.40;;;;;;5027673;28;20449;-59
2022/09/17 12:32:50;;;;;;;3.07;1.30;;;12.40;80.80;;;;;;5029140;28;20470;-55
2022/09/17 12:35:45;;;;;;;5.90;1.47;;;13.10;69.20;;;;;;5018466;28;20433;-55
2022/09/17 12:38:35;;;;;;;2.03;1.50;;;13.60;63.70;;;;;;5022499;28;20435;-55
2022/09/17 12:41:39;;;;;;;1.10;1.07;;;14.20;60.40;;;;;;5024338;28;20793;-55
2022/09/17 12:44:40;;;;;;;0.87;0.87;;;14.60;58.10;;;;;;5014528;28;20944;-55
2022/09/17 12:47:33;;;;;;;1.20;1.10;;;14.90;57.80;;;;;;4950419;28;20770;-55
2022/09/17 12:50:13;;;;;;;1.47;1.23;;;15.10;55.00;;;;;;5018695;28;20442;-56
2022/09/17 12:52:56;;;;;;;1.73;1.20;;;15.10;54.10;;;;;;5024775;28;20435;-53
2022/09/17 12:56:13;;;;;;;3.00;1.20;;;14.90;54.40;;;;;;5032135;28;20426;-56
2022/09/17 12:58:54;;;;;;;3.10;1.90;;;14.70;55.30;;;;;;5001363;28;20993;-55
2022/09/17 13:01:51;;;;;;;1.27;1.17;;;14.50;55.50;;;;;;5024873;28;20431;-56
2022/09/17 13:04:58;;;;;;;1.23;1.07;;;14.40;56.50;;;;;;5032212;28;20429;-56
2022/09/17 13:07:51;;;;;;;2.60;1.37;;;14.30;56.70;;;;;;5025015;28;20500;-56
2022/09/17 13:10:17;;;;;;;2.00;1.10;;;14.30;56.70;;;;;;5028099;28;20462;-56
2022/09/17 13:13:32;;;;;;;1.90;1.10;;;14.50;56.40;;;;;;5023754;28;20901;-55
2022/09/17 13:16:08;;;;;;;3.23;1.50;;;14.40;56.00;;;;;;5008875;28;20185;-55
2022/09/17 13:18:52;;;;;;;3.60;1.33;;;14.50;55.20;;;;;;5044413;28;20406;-55
2022/09/17 13:21:48;;;;;;;1.10;1.00;;;14.90;54.60;;;;;;5033828;28;20539;-57
2022/09/17 13:24:21;;;;;;;1.83;1.33;;;15.50;54.00;;;;;;4999050;28;20786;-55